createdAt,value
2017-11-23T00:01:36.079Z,98064.27
2017-11-23T00:04:06.011Z,98056.80
2017-11-23T00:06:35.609Z,98054.38
2017-11-23T00:09:05.565Z,98044.93
2017-11-23T00:11:35.480Z,98043.93
2017-11-23T00:14:05.396Z,98045.11
2017-11-23T00:16:34.941Z,98037.86
2017-11-23T00:19:05.402Z,98041.58
2017-11-23T00:21:34.945Z,98056.73
2017-11-23T00:24:05.050Z,98041.55
2017-11-23T00:26:34.783Z,98038.84
2017-11-23T00:29:04.469Z,98037.80
2017-11-23T00:31:34.157Z,98027.67
2017-11-23T00:34:03.764Z,98027.03
2017-11-23T00:36:33.355Z,98026.80
2017-11-23T00:39:03.030Z,98031.58
2017-11-23T00:41:39.991Z,98035.85
2017-11-23T00:44:31.719Z,98038.05
2017-11-23T00:47:01.657Z,98029.85
2017-11-23T00:49:32.276Z,98034.44
2017-11-23T00:52:02.139Z,98027.38
2017-11-23T00:54:31.941Z,98047.61
2017-11-23T00:57:01.971Z,98054.58
2017-11-23T00:59:31.880Z,98049.72
2017-11-23T01:02:01.391Z,98048.98
2017-11-23T01:04:32.014Z,98054.00
2017-11-23T01:07:02.493Z,98041.40
2017-11-23T01:09:32.169Z,98039.52
2017-11-23T01:12:01.959Z,98035.34
2017-11-23T01:14:31.628Z,98031.92
2017-11-23T01:17:01.189Z,98028.25
2017-11-23T01:19:32.014Z,98023.60
2017-11-23T01:23:06.089Z,98030.09
2017-11-23T01:25:36.177Z,98029.98
2017-11-23T01:28:05.729Z,98021.27
2017-11-23T01:30:35.408Z,98024.34
2017-11-23T01:33:05.049Z,98026.86
2017-11-23T01:35:34.774Z,98023.52
2017-11-23T01:38:04.577Z,98024.72
2017-11-23T01:40:34.334Z,98021.30
2017-11-23T01:43:04.923Z,98014.75
2017-11-23T01:45:34.496Z,98017.57
2017-11-23T01:48:04.072Z,98014.30
2017-11-23T01:50:33.892Z,98009.28
2017-11-23T01:53:03.637Z,98016.05
2017-11-23T01:55:33.561Z,98005.72
2017-11-23T01:58:03.668Z,98001.56
2017-11-23T02:00:33.414Z,98007.38
2017-11-23T02:03:03.291Z,97997.65
2017-11-23T02:05:33.659Z,97997.09
2017-11-23T02:08:04.084Z,97996.38
2017-11-23T02:10:34.014Z,97992.60
2017-11-23T02:13:03.875Z,97992.72
2017-11-23T02:15:34.817Z,97989.20
2017-11-23T02:18:04.848Z,97980.30
2017-11-23T02:20:34.860Z,97975.44
2017-11-23T02:23:04.845Z,97976.38
2017-11-23T02:25:34.740Z,97974.48
2017-11-23T02:28:04.717Z,97975.33
2017-11-23T02:30:34.640Z,97976.66
2017-11-23T02:33:04.493Z,97980.41
2017-11-23T02:35:34.250Z,97982.14
2017-11-23T02:38:04.345Z,97980.14
2017-11-23T02:40:33.961Z,97984.30
2017-11-23T02:43:03.983Z,97987.45
2017-11-23T02:45:33.549Z,97991.44
2017-11-23T02:48:04.064Z,97982.69
2017-11-23T02:50:33.814Z,97984.91
2017-11-23T02:53:03.829Z,97976.94
2017-11-23T02:55:33.796Z,97977.66
2017-11-23T02:58:04.170Z,97989.80
2017-11-23T03:00:33.936Z,97985.39
2017-11-23T03:03:04.503Z,97982.98
2017-11-23T03:05:35.831Z,97985.75
2017-11-23T03:08:05.643Z,97979.55
2017-11-23T03:10:42.454Z,97979.08
2017-11-23T03:13:12.448Z,97976.38
2017-11-23T03:15:45.134Z,97978.05
2017-11-23T03:18:14.906Z,97982.00
2017-11-23T03:20:44.924Z,97988.83
2017-11-23T03:23:15.059Z,97978.66
2017-11-23T03:25:44.707Z,97977.11
2017-11-23T03:28:14.552Z,97978.92
2017-11-23T03:30:44.608Z,97979.34
2017-11-23T03:33:14.309Z,97983.02
2017-11-23T03:35:44.097Z,97977.56
2017-11-23T03:38:13.862Z,97986.73
2017-11-23T03:40:44.120Z,97979.69
2017-11-23T03:43:13.869Z,97989.73
2017-11-23T03:45:44.113Z,97985.38
2017-11-23T03:48:14.260Z,97988.03
2017-11-23T03:50:44.240Z,97993.67
2017-11-23T03:53:13.882Z,97979.88
2017-11-23T03:55:44.229Z,97976.16
2017-11-23T03:58:13.893Z,97982.61
2017-11-23T04:00:46.614Z,97984.34
2017-11-23T04:03:16.359Z,97976.91
2017-11-23T04:05:46.986Z,97964.14
2017-11-23T04:08:17.107Z,97965.47
2017-11-23T04:10:47.029Z,97963.99
2017-11-23T04:13:16.857Z,97966.34
2017-11-23T04:15:46.965Z,97954.22
2017-11-23T04:18:16.752Z,97964.07
2017-11-23T04:20:46.694Z,97963.02
2017-11-23T04:23:16.913Z,97969.49
2017-11-23T04:25:46.763Z,97968.02
2017-11-23T04:28:17.004Z,97969.19
2017-11-23T04:30:46.579Z,97966.77
2017-11-23T04:33:16.626Z,97964.19
2017-11-23T04:35:46.339Z,97971.35
2017-11-23T04:38:16.310Z,97963.42
2017-11-23T04:40:51.319Z,97954.22
2017-11-23T04:43:21.334Z,97955.17
2017-11-23T04:45:50.987Z,97960.28
2017-11-23T04:48:20.598Z,97952.89
2017-11-23T04:50:50.406Z,97961.12
2017-11-23T04:53:21.294Z,97954.26
2017-11-23T04:55:51.017Z,97947.13
2017-11-23T04:58:20.756Z,97945.66
2017-11-23T05:00:50.573Z,97956.91
2017-11-23T05:03:20.608Z,97960.81
2017-11-23T05:05:50.824Z,97951.72
2017-11-23T05:08:20.783Z,97962.37
2017-11-23T05:10:50.968Z,97962.56
2017-11-23T05:13:22.852Z,97941.42
2017-11-23T05:15:53.075Z,97969.98
2017-11-23T05:18:22.871Z,97968.81
2017-11-23T05:20:52.719Z,97963.84
2017-11-23T05:23:22.448Z,97977.94
2017-11-23T05:25:52.328Z,97981.73
2017-11-23T05:28:22.509Z,97988.42
2017-11-23T05:30:52.206Z,97986.91
2017-11-23T05:33:21.849Z,97981.95
2017-11-23T05:35:51.393Z,97980.84
2017-11-23T05:38:21.175Z,97970.16
2017-11-23T05:40:50.849Z,97977.36
2017-11-23T05:43:22.241Z,97980.98
2017-11-23T05:45:54.751Z,97988.18
2017-11-23T05:48:24.712Z,97992.45
2017-11-23T05:50:54.777Z,97979.67
2017-11-23T05:53:25.379Z,97979.66
2017-11-23T05:55:55.073Z,97988.53
2017-11-23T05:58:25.184Z,97995.80
2017-11-23T06:00:55.797Z,97994.53
2017-11-23T06:03:29.222Z,97995.91
2017-11-23T06:05:59.604Z,97994.81
2017-11-23T06:08:32.012Z,97997.31
2017-11-23T06:11:02.569Z,97995.65
2017-11-23T06:13:33.697Z,97986.66
2017-11-23T06:16:03.816Z,97993.77
2017-11-23T06:18:34.122Z,97987.26
2017-11-23T06:21:03.838Z,97994.53
2017-11-23T06:23:33.815Z,97995.91
2017-11-23T06:26:03.741Z,97995.49
2017-11-23T06:28:33.485Z,97987.26
2017-11-23T06:31:03.080Z,97986.80
2017-11-23T06:33:34.310Z,97991.88
2017-11-23T06:36:03.882Z,97991.69
2017-11-23T06:38:34.316Z,97990.70
2017-11-23T06:41:04.073Z,97997.10
2017-11-23T06:43:33.634Z,97992.85
2017-11-23T06:46:03.156Z,97992.29
2017-11-23T06:48:33.085Z,98002.47
2017-11-23T06:51:03.611Z,98003.80
2017-11-23T06:53:33.256Z,98004.55
2017-11-23T06:56:04.396Z,97998.05
2017-11-23T06:58:33.940Z,98005.30
2017-11-23T07:01:03.597Z,98002.98
2017-11-23T07:03:33.779Z,98015.61
2017-11-23T07:06:03.483Z,98005.34
2017-11-23T07:08:33.242Z,98017.66
2017-11-23T07:11:03.345Z,98021.45
2017-11-23T07:13:33.321Z,98016.08
2017-11-23T07:16:03.366Z,98011.45
2017-11-23T07:18:33.473Z,98005.91
2017-11-23T07:21:03.335Z,98006.98
2017-11-23T07:23:33.104Z,97994.28
2017-11-23T07:26:03.065Z,97985.90
2017-11-23T07:28:35.445Z,97984.66
2017-11-23T07:31:06.377Z,97989.73
2017-11-23T07:33:37.677Z,98001.14
2017-11-23T07:36:07.988Z,98019.69
2017-11-23T07:38:38.058Z,98030.77
2017-11-23T07:41:08.520Z,98026.46
2017-11-23T07:43:39.166Z,98016.95
2017-11-23T07:46:12.011Z,98019.87
2017-11-23T07:48:57.229Z,98025.33
2017-11-23T07:51:29.900Z,98023.47
2017-11-23T07:54:04.904Z,98017.45
2017-11-23T07:56:35.793Z,98006.75
2017-11-23T07:59:07.324Z,98000.29
2017-11-23T08:01:37.770Z,97991.95
2017-11-23T08:04:10.140Z,97996.06
2017-11-23T08:06:42.459Z,97999.73
2017-11-23T08:09:17.053Z,97991.19
2017-11-23T08:11:47.625Z,97995.30
2017-11-23T08:14:17.536Z,97998.80
2017-11-23T08:16:47.787Z,97989.35
2017-11-23T08:19:18.287Z,97992.67
2017-11-23T08:21:48.893Z,97992.16
2017-11-23T08:24:20.507Z,97984.39
2017-11-23T08:26:53.146Z,97984.52
2017-11-23T08:29:24.020Z,97992.59
2017-11-23T08:31:55.197Z,97998.66
2017-11-23T08:34:28.034Z,98007.23
2017-11-23T08:36:58.122Z,98004.65
2017-11-23T08:39:27.950Z,98005.86
2017-11-23T08:41:57.684Z,98013.67
2017-11-23T08:44:27.590Z,98018.52
2017-11-23T08:46:58.093Z,98011.22
2017-11-23T08:49:27.977Z,98016.16
2017-11-23T08:51:58.486Z,98003.77
2017-11-23T08:54:34.459Z,98011.87
2017-11-23T08:57:04.544Z,97999.93
2017-11-23T08:59:35.099Z,97992.43
2017-11-23T09:02:08.307Z,98008.11
2017-11-23T09:04:39.403Z,98007.30
2017-11-23T09:07:09.549Z,98010.81
2017-11-23T09:09:39.572Z,98011.32
2017-11-23T09:12:15.372Z,98008.20
2017-11-23T09:14:45.576Z,98020.56
2017-11-23T09:17:15.248Z,98023.89
2017-11-23T09:19:44.888Z,98020.23
2017-11-23T09:22:17.949Z,98017.01
2017-11-23T09:24:48.719Z,98026.72
2017-11-23T09:27:18.554Z,98023.56
2017-11-23T09:29:50.068Z,98018.98
2017-11-23T09:32:19.721Z,98018.56
2017-11-23T09:34:49.432Z,98029.42
2017-11-23T09:37:19.431Z,98019.95
2017-11-23T09:39:49.367Z,98021.11
2017-11-23T09:42:18.881Z,98022.27
2017-11-23T09:44:48.819Z,98015.61
2017-11-23T09:47:19.591Z,98020.13
2017-11-23T09:49:49.435Z,98015.91
2017-11-23T09:52:19.109Z,98017.93
2017-11-23T09:54:49.336Z,98022.03
2017-11-23T09:57:18.894Z,98026.42
2017-11-23T09:59:48.456Z,98025.34
2017-11-23T10:02:18.473Z,98024.44
2017-11-23T10:04:48.625Z,98032.88
2017-11-23T10:07:18.190Z,98023.89
2017-11-23T10:09:48.331Z,98025.21
2017-11-23T10:12:17.849Z,98025.41
2017-11-23T10:14:47.714Z,98028.97
2017-11-23T10:17:17.828Z,98024.56
2017-11-23T10:19:47.453Z,98030.73
2017-11-23T10:22:17.346Z,98026.73
2017-11-23T10:24:47.326Z,98015.88
2017-11-23T10:27:16.796Z,98019.16
2017-11-23T10:29:46.833Z,98019.63
2017-11-23T10:32:16.648Z,98012.97
2017-11-23T10:34:46.372Z,98009.94
2017-11-23T10:37:16.373Z,98004.94
2017-11-23T10:39:46.502Z,98008.33
2017-11-23T10:42:16.228Z,98001.17
2017-11-23T10:44:46.086Z,98008.55
2017-11-23T10:47:16.235Z,98009.06
2017-11-23T10:50:49.042Z,97988.16
2017-11-23T10:53:19.390Z,97984.38
2017-11-23T10:55:49.155Z,97973.98
2017-11-23T10:58:18.633Z,97997.13
2017-11-23T11:00:49.446Z,97993.45
2017-11-23T11:03:19.946Z,97994.88
2017-11-23T11:05:49.937Z,97997.60
2017-11-23T11:08:19.894Z,97996.72
2017-11-23T11:10:49.621Z,98004.97
2017-11-23T11:13:21.937Z,97997.12
2017-11-23T11:15:54.022Z,97998.35
2017-11-23T11:18:23.978Z,97990.58
2017-11-23T11:20:53.634Z,97998.09
2017-11-23T11:23:23.597Z,97994.86
2017-11-23T11:25:53.668Z,97989.84
2017-11-23T11:28:23.344Z,97986.14
2017-11-23T11:30:53.085Z,97978.97
2017-11-23T11:33:22.514Z,97975.73
2017-11-23T11:35:52.483Z,97975.11
2017-11-23T11:38:22.767Z,97973.92
2017-11-23T11:40:52.574Z,97963.21
2017-11-23T11:43:22.279Z,97969.31
2017-11-23T11:45:51.865Z,97954.86
2017-11-23T11:48:22.127Z,97948.00
2017-11-23T11:50:52.012Z,97953.27
2017-11-23T11:53:21.522Z,97956.94
2017-11-23T11:55:51.376Z,97948.13
2017-11-23T11:58:21.101Z,97954.74
2017-11-23T12:00:51.021Z,97952.67
2017-11-23T12:03:21.471Z,97955.59
2017-11-23T12:05:51.458Z,97959.66
2017-11-23T12:08:20.929Z,97950.48
2017-11-23T12:10:50.971Z,97950.43
2017-11-23T12:13:20.478Z,97946.16
2017-11-23T12:15:58.754Z,97959.47
2017-11-23T12:18:41.326Z,97978.94
2017-11-23T12:21:22.887Z,97961.88
2017-11-23T12:23:57.172Z,97968.26
2017-11-23T12:26:27.110Z,97972.80
2017-11-23T12:31:06.130Z,97964.31
2017-11-23T12:33:35.595Z,97961.28
2017-11-23T12:36:05.524Z,97943.70
2017-11-23T12:38:35.022Z,97950.16
2017-11-23T12:41:05.251Z,97966.76
2017-11-23T12:43:34.724Z,97944.17
2017-11-23T12:46:04.702Z,97948.06
2017-11-23T12:48:34.686Z,97958.10
2017-11-23T12:51:05.385Z,97961.27
2017-11-23T12:53:42.742Z,97947.26
2017-11-23T12:56:13.046Z,97953.34
2017-11-23T12:58:43.169Z,97948.25
2017-11-23T13:01:22.673Z,97940.69
2017-11-23T13:03:57.775Z,97924.87
2017-11-23T13:06:34.142Z,97931.03
2017-11-23T13:09:04.768Z,97934.10
2017-11-23T13:11:36.605Z,97947.97
2017-11-23T13:14:07.162Z,97953.09
2017-11-23T13:16:37.329Z,97948.22
2017-11-23T13:19:07.146Z,97974.31
2017-11-23T13:21:37.388Z,97989.62
2017-11-23T13:24:06.945Z,98011.20
2017-11-23T13:26:37.329Z,98003.91
2017-11-23T13:29:12.636Z,98008.75
2017-11-23T13:31:42.444Z,98017.34
2017-11-23T13:34:12.320Z,98011.61
2017-11-23T13:36:42.175Z,98004.98
2017-11-23T13:39:11.705Z,98009.13
2017-11-23T13:41:42.649Z,98008.70
2017-11-23T13:44:12.358Z,98010.00
2017-11-23T13:46:41.919Z,98021.93
2017-11-23T13:49:15.138Z,98020.80
2017-11-23T13:51:45.028Z,98025.67
2017-11-23T13:54:15.152Z,98016.78
2017-11-23T13:56:45.080Z,98031.44
2017-11-23T13:59:14.936Z,98028.53
2017-11-23T14:01:44.636Z,98034.71
2017-11-23T14:04:14.423Z,98037.89
2017-11-23T14:06:45.481Z,98056.61
2017-11-23T14:09:15.250Z,98054.20
2017-11-23T14:11:44.986Z,98076.54
2017-11-23T14:14:15.461Z,98090.11
2017-11-23T14:16:46.376Z,98086.27
2017-11-23T14:19:16.647Z,98092.61
2017-11-23T14:21:47.149Z,98088.70
2017-11-23T14:24:18.882Z,98088.64
2017-11-23T14:26:48.727Z,98084.61
2017-11-23T14:29:18.306Z,98079.50
2017-11-23T14:31:48.280Z,98085.52
2017-11-23T14:34:18.479Z,98074.92
2017-11-23T14:36:48.828Z,98073.42
2017-11-23T14:39:18.590Z,98074.45
2017-11-23T14:41:49.616Z,98072.13
2017-11-23T14:44:20.060Z,98068.53
2017-11-23T14:46:50.702Z,98069.89
2017-11-23T14:49:22.273Z,98065.36
2017-11-23T14:51:53.153Z,98070.88
2017-11-23T14:54:22.966Z,98065.77
2017-11-23T14:56:55.089Z,98059.27
2017-11-23T14:59:25.466Z,98064.11
2017-11-23T15:01:57.262Z,98058.94
2017-11-23T15:04:30.170Z,98060.59
2017-11-23T15:07:00.009Z,98064.20
2017-11-23T15:09:31.831Z,98059.36
2017-11-23T15:12:03.614Z,98065.19
2017-11-23T15:14:34.456Z,98059.59
2017-11-23T15:17:05.258Z,98062.59
2017-11-23T15:19:38.809Z,98064.59
2017-11-23T15:22:09.525Z,98052.25
2017-11-23T15:24:42.135Z,98066.34
2017-11-23T15:27:13.133Z,98070.34
2017-11-23T15:29:43.385Z,98080.06
2017-11-23T15:32:13.615Z,98076.50
2017-11-23T15:34:44.576Z,98080.33
2017-11-23T15:37:15.424Z,98074.41
2017-11-23T15:39:45.400Z,98082.67
2017-11-23T15:42:16.697Z,98086.92
2017-11-23T15:44:47.173Z,98085.94
2017-11-23T15:47:17.682Z,98087.42
2017-11-23T15:49:48.216Z,98088.77
2017-11-23T15:52:18.724Z,98086.41
2017-11-23T15:54:48.775Z,98083.44
2017-11-23T15:57:19.533Z,98084.76
2017-11-23T15:59:49.126Z,98087.65
2017-11-23T16:02:18.898Z,98085.50
2017-11-23T16:04:49.090Z,98082.27
2017-11-23T16:07:19.624Z,98064.02
2017-11-23T16:09:49.263Z,98077.03
2017-11-23T16:12:20.010Z,98097.03
2017-11-23T16:14:51.462Z,98101.61
2017-11-23T16:17:21.648Z,98100.69
2017-11-23T16:19:52.291Z,98101.30
2017-11-23T16:22:22.155Z,98107.80
2017-11-23T16:24:52.057Z,98103.71
2017-11-23T16:27:25.176Z,98100.11
2017-11-23T16:29:55.767Z,98113.73
2017-11-23T16:32:28.822Z,98113.63
2017-11-23T16:35:00.627Z,98114.31
2017-11-23T16:37:35.149Z,98112.55
2017-11-23T16:40:07.207Z,98123.89
2017-11-23T16:42:39.950Z,98126.55
2017-11-23T16:45:15.625Z,98136.34
2017-11-23T16:47:49.378Z,98142.25
2017-11-23T16:50:19.934Z,98140.58
2017-11-23T16:52:50.781Z,98155.51
2017-11-23T16:55:24.895Z,98164.34
2017-11-23T16:57:56.581Z,98175.80
2017-11-23T17:00:32.010Z,98181.89
2017-11-23T17:03:06.466Z,98187.64
2017-11-23T17:05:42.343Z,98198.66
2017-11-23T17:08:15.647Z,98202.99
2017-11-23T17:10:50.307Z,98216.87
2017-11-23T17:13:27.162Z,98215.25
2017-11-23T17:15:58.665Z,98209.83
2017-11-23T17:18:31.523Z,98213.58
2017-11-23T17:21:01.216Z,98209.41
2017-11-23T17:23:31.499Z,98212.27
2017-11-23T17:26:01.854Z,98222.03
2017-11-23T17:28:32.776Z,98213.77
2017-11-23T17:31:02.711Z,98217.23
2017-11-23T17:33:33.795Z,98211.55
2017-11-23T17:36:04.165Z,98207.97
2017-11-23T17:38:34.287Z,98212.27
2017-11-23T17:41:04.542Z,98213.08
2017-11-23T17:43:35.447Z,98209.97
2017-11-23T17:46:05.280Z,98206.44
2017-11-23T17:48:35.574Z,98213.20
2017-11-23T17:51:05.376Z,98218.73
2017-11-23T17:53:35.589Z,98216.36
2017-11-23T17:56:06.438Z,98221.19
2017-11-23T17:58:36.746Z,98231.41
2017-11-23T18:01:07.462Z,98222.73
2017-11-23T18:03:37.923Z,98222.91
2017-11-23T18:06:08.671Z,98229.34
2017-11-23T18:08:39.898Z,98230.64
2017-11-23T18:11:09.984Z,98225.95
2017-11-23T18:13:40.737Z,98236.05
2017-11-23T18:16:10.771Z,98234.21
2017-11-23T18:18:40.617Z,98231.13
2017-11-23T18:21:10.985Z,98229.44
2017-11-23T18:23:41.474Z,98224.97
2017-11-23T18:26:12.736Z,98227.28
2017-11-23T18:28:42.829Z,98226.38
2017-11-23T18:31:13.541Z,98220.20
2017-11-23T18:33:45.183Z,98229.87
2017-11-23T18:36:15.273Z,98222.97
2017-11-23T18:38:45.098Z,98235.91
2017-11-23T18:41:15.829Z,98237.30
2017-11-23T18:43:45.961Z,98236.73
2017-11-23T18:46:16.677Z,98241.75
2017-11-23T18:48:47.496Z,98240.47
2017-11-23T18:51:17.564Z,98243.83
2017-11-23T18:53:47.705Z,98241.37
2017-11-23T18:56:19.467Z,98252.55
2017-11-23T18:58:49.551Z,98249.69
2017-11-23T19:01:20.405Z,98247.00
2017-11-23T19:03:53.229Z,98250.08
2017-11-23T19:06:25.836Z,98247.87
2017-11-23T19:08:56.033Z,98245.37
2017-11-23T19:11:26.374Z,98240.77
2017-11-23T19:13:56.356Z,98248.13
2017-11-23T19:16:27.306Z,98248.92
2017-11-23T19:18:58.010Z,98260.36
2017-11-23T19:21:27.780Z,98262.05
2017-11-23T19:23:58.506Z,98260.89
2017-11-23T19:26:28.244Z,98256.23
2017-11-23T19:28:59.334Z,98258.28
2017-11-23T19:31:30.807Z,98252.80
2017-11-23T19:34:01.305Z,98259.05
2017-11-23T19:36:31.441Z,98264.13
2017-11-23T19:39:01.491Z,98267.12
2017-11-23T19:41:31.599Z,98269.30
2017-11-23T19:44:01.918Z,98276.31
2017-11-23T19:46:31.944Z,98286.68
2017-11-23T19:49:02.276Z,98283.83
2017-11-23T19:51:32.779Z,98294.19
2017-11-23T19:54:03.563Z,98295.53
2017-11-23T19:56:33.377Z,98306.21
2017-11-23T19:59:06.796Z,98311.73
2017-11-23T20:01:36.882Z,98317.81
2017-11-23T20:04:07.714Z,98315.38
2017-11-23T20:06:39.357Z,98316.84
2017-11-23T20:09:10.677Z,98325.24
2017-11-23T20:11:40.583Z,98324.27
2017-11-23T20:14:11.726Z,98319.83
2017-11-23T20:16:41.433Z,98324.86
2017-11-23T20:19:11.509Z,98325.14
2017-11-23T20:22:02.487Z,98324.86
2017-11-23T20:24:32.636Z,98322.88
2017-11-23T20:27:04.799Z,98327.62
2017-11-23T20:29:36.115Z,98324.78
2017-11-23T20:32:06.709Z,98331.64
2017-11-23T20:34:37.397Z,98329.16
2017-11-23T20:37:08.649Z,98333.32
2017-11-23T20:39:43.025Z,98336.65
2017-11-23T20:42:14.310Z,98338.63
2017-11-23T20:44:46.444Z,98330.91
2017-11-23T20:47:19.950Z,98335.53
2017-11-23T20:49:50.978Z,98336.95
2017-11-23T20:52:23.321Z,98325.16
2017-11-23T20:54:55.049Z,98332.27
2017-11-23T20:57:25.170Z,98332.57
2017-11-23T20:59:55.965Z,98329.05
2017-11-23T21:02:28.385Z,98335.39
2017-11-23T21:04:59.108Z,98330.41
2017-11-23T21:07:34.654Z,98335.23
2017-11-23T21:10:11.675Z,98329.48
2017-11-23T21:12:44.868Z,98328.07
2017-11-23T21:15:15.780Z,98327.27
2017-11-23T21:17:46.940Z,98327.48
2017-11-23T21:20:17.785Z,98319.71
2017-11-23T21:22:48.680Z,98324.36
2017-11-23T21:25:19.482Z,98316.52
2017-11-23T21:27:49.958Z,98315.11
2017-11-23T21:30:20.469Z,98319.02
2017-11-23T21:32:51.531Z,98324.45
2017-11-23T21:35:23.819Z,98327.05
2017-11-23T21:37:56.423Z,98332.81
2017-11-23T21:40:26.110Z,98332.78
2017-11-23T21:42:57.786Z,98323.69
2017-11-23T21:45:28.912Z,98330.62
2017-11-23T21:47:59.881Z,98339.02
2017-11-23T21:50:29.761Z,98335.03
2017-11-23T21:53:00.418Z,98335.06
2017-11-23T21:55:30.246Z,98334.23
2017-11-23T21:58:00.957Z,98340.66
2017-11-23T22:00:44.566Z,98342.66
2017-11-23T22:03:22.151Z,98341.77
2017-11-23T22:05:55.595Z,98330.67
2017-11-23T22:08:27.995Z,98340.27
2017-11-23T22:14:02.019Z,98339.74
2017-11-23T22:16:33.627Z,98338.91
2017-11-23T22:19:09.409Z,98339.91
2017-11-23T22:21:39.750Z,98343.72
2017-11-23T22:24:11.838Z,98356.80
2017-11-23T22:26:45.224Z,98349.73
2017-11-23T22:29:15.133Z,98352.98
2017-11-23T22:31:45.767Z,98356.41
2017-11-23T22:34:15.683Z,98354.41
2017-11-23T22:36:46.660Z,98358.77
2017-11-23T22:39:17.130Z,98357.97
2017-11-23T22:41:47.250Z,98360.64
2017-11-23T22:44:17.110Z,98370.69
2017-11-23T22:46:47.018Z,98364.97
2017-11-23T22:49:18.039Z,98372.61
2017-11-23T22:51:48.905Z,98380.13
2017-11-23T22:54:21.397Z,98385.92
2017-11-23T22:56:51.781Z,98393.86
2017-11-23T22:59:21.677Z,98390.48
2017-11-23T23:01:51.908Z,98383.09
2017-11-23T23:04:21.942Z,98380.42
2017-11-23T23:06:52.020Z,98370.39
2017-11-23T23:09:23.553Z,98374.95
2017-11-23T23:11:54.798Z,98379.13
2017-11-23T23:14:28.641Z,98373.33
2017-11-23T23:16:58.941Z,98376.41
2017-11-23T23:19:29.578Z,98376.92
2017-11-23T23:22:01.372Z,98376.33
2017-11-23T23:24:36.096Z,98369.16
2017-11-23T23:27:06.325Z,98369.66
2017-11-23T23:29:35.978Z,98370.66
2017-11-23T23:32:05.800Z,98367.61
2017-11-23T23:34:36.132Z,98380.63
2017-11-23T23:37:05.929Z,98375.71
2017-11-23T23:39:36.242Z,98375.45
2017-11-23T23:42:07.602Z,98381.25
2017-11-23T23:44:38.944Z,98379.83
2017-11-23T23:47:09.303Z,98381.89
2017-11-23T23:49:41.774Z,98371.33
2017-11-23T23:52:12.921Z,98367.20
2017-11-23T23:54:43.074Z,98360.72
2017-11-23T23:57:14.435Z,98359.52
2017-11-23T23:59:44.356Z,98361.94
